sensor_id;sensor_type;location;lat;lon;timestamp;pressure;altitude;pressure_sealevel;temperature;humidity
62725;BME280;49026;52.600;4.694;2022-10-04T00:07:04;102296.63;;;12.36;66.74
62725;BME280;49026;52.600;4.694;2022-10-04T00:09:44;102299.28;;;12.34;66.89
62725;BME280;49026;52.600;4.694;2022-10-04T00:15:03;102308.16;;;12.32;66.91
62725;BME280;49026;52.600;4.694;2022-10-04T00:17:30;102301.19;;;12.28;66.35
62725;BME280;49026;52.600;4.694;2022-10-04T00:20:00;102301.38;;;12.21;66.55
62725;BME280;49026;52.600;4.694;2022-10-04T00:22:32;102298.84;;;12.17;66.77
62725;BME280;49026;52.600;4.694;2022-10-04T00:27:34;102281.53;;;12.05;66.45
62725;BME280;49026;52.600;4.694;2022-10-04T00:32:28;102269.44;;;11.98;66.74
62725;BME280;49026;52.600;4.694;2022-10-04T00:34:55;102272.13;;;11.95;66.93
62725;BME280;49026;52.600;4.694;2022-10-04T00:37:23;102261.59;;;11.95;66.81
62725;BME280;49026;52.600;4.694;2022-10-04T00:40:16;102265.97;;;11.94;66.98
62725;BME280;49026;52.600;4.694;2022-10-04T00:45:16;102265.94;;;11.96;67.06
62725;BME280;49026;52.600;4.694;2022-10-04T00:50:20;102271.19;;;11.97;67.29
62725;BME280;49026;52.600;4.694;2022-10-04T00:52:50;102260.59;;;11.99;66.96
62725;BME280;49026;52.600;4.694;2022-10-04T00:57:59;102257.97;;;11.99;68.12
62725;BME280;49026;52.600;4.694;2022-10-04T01:00:28;102249.19;;;12.00;67.08
62725;BME280;49026;52.600;4.694;2022-10-04T01:03:06;102248.28;;;11.99;66.92
62725;BME280;49026;52.600;4.694;2022-10-04T01:05:35;102261.53;;;11.98;66.96
62725;BME280;49026;52.600;4.694;2022-10-04T01:08:16;102258.81;;;11.99;66.99
62725;BME280;49026;52.600;4.694;2022-10-04T01:11:09;102250.06;;;11.99;67.19
62725;BME280;49026;52.600;4.694;2022-10-04T01:13:39;102240.38;;;11.99;67.31
62725;BME280;49026;52.600;4.694;2022-10-04T01:16:15;102243.91;;;12.00;67.46
62725;BME280;49026;52.600;4.694;2022-10-04T01:18:42;102245.63;;;12.01;67.08
62725;BME280;49026;52.600;4.694;2022-10-04T01:28:58;102205.28;;;11.99;67.52
62725;BME280;49026;52.600;4.694;2022-10-04T01:31:28;102201.81;;;11.97;67.99
62725;BME280;49026;52.600;4.694;2022-10-04T01:33:55;102194.81;;;11.96;67.55
62725;BME280;49026;52.600;4.694;2022-10-04T01:36:21;102193.09;;;11.95;67.88
62725;BME280;49026;52.600;4.694;2022-10-04T01:38:47;102188.72;;;11.94;67.85
62725;BME280;49026;52.600;4.694;2022-10-04T01:41:15;102193.16;;;11.92;67.94
62725;BME280;49026;52.600;4.694;2022-10-04T01:43:44;102183.59;;;11.86;67.29
62725;BME280;49026;52.600;4.694;2022-10-04T01:46:27;102179.38;;;11.79;67.85
62725;BME280;49026;52.600;4.694;2022-10-04T01:48:56;102176.88;;;11.73;67.70
62725;BME280;49026;52.600;4.694;2022-10-04T01:51:29;102173.59;;;11.64;67.58
62725;BME280;49026;52.600;4.694;2022-10-04T01:53:59;102168.53;;;11.55;67.21
62725;BME280;49026;52.600;4.694;2022-10-04T01:56:30;102161.78;;;11.43;67.45
62725;BME280;49026;52.600;4.694;2022-10-04T01:59:00;102155.00;;;11.33;67.15
62725;BME280;49026;52.600;4.694;2022-10-04T02:01:41;102157.81;;;11.24;68.41
62725;BME280;49026;52.600;4.694;2022-10-04T02:04:21;102150.09;;;11.18;67.71
62725;BME280;49026;52.600;4.694;2022-10-04T02:06:49;102162.50;;;11.11;67.73
62725;BME280;49026;52.600;4.694;2022-10-04T02:09:22;102153.91;;;11.03;67.23
62725;BME280;49026;52.600;4.694;2022-10-04T02:11:49;102143.50;;;10.97;67.27
62725;BME280;49026;52.600;4.694;2022-10-04T02:14:21;102137.50;;;10.90;67.33
62725;BME280;49026;52.600;4.694;2022-10-04T02:16:48;102131.47;;;10.85;67.55
62725;BME280;49026;52.600;4.694;2022-10-04T02:19:16;102128.09;;;10.80;67.90
62725;BME280;49026;52.600;4.694;2022-10-04T02:21:43;102120.25;;;10.77;68.16
62725;BME280;49026;52.600;4.694;2022-10-04T02:24:09;102115.03;;;10.73;67.74
62725;BME280;49026;52.600;4.694;2022-10-04T02:26:36;102120.38;;;10.70;67.28
62725;BME280;49026;52.600;4.694;2022-10-04T02:29:01;102115.25;;;10.64;67.37
62725;BME280;49026;52.600;4.694;2022-10-04T02:31:27;102110.06;;;10.61;67.64
62725;BME280;49026;52.600;4.694;2022-10-04T02:34:12;102102.22;;;10.58;67.76
62725;BME280;49026;52.600;4.694;2022-10-04T02:36:38;102104.06;;;10.53;67.32
62725;BME280;49026;52.600;4.694;2022-10-04T02:41:42;102091.03;;;10.47;67.65
62725;BME280;49026;52.600;4.694;2022-10-04T02:44:17;102091.09;;;10.44;68.08
62725;BME280;49026;52.600;4.694;2022-10-04T02:49:33;102091.16;;;10.41;68.20
62725;BME280;49026;52.600;4.694;2022-10-04T02:52:18;102101.75;;;10.37;68.14
62725;BME280;49026;52.600;4.694;2022-10-04T02:54:48;102109.69;;;10.34;67.76
62725;BME280;49026;52.600;4.694;2022-10-04T02:57:18;102097.44;;;10.33;67.66
62725;BME280;49026;52.600;4.694;2022-10-04T02:59:45;102092.25;;;10.27;67.57
62725;BME280;49026;52.600;4.694;2022-10-04T03:02:27;102090.66;;;10.20;68.65
62725;BME280;49026;52.600;4.694;2022-10-04T03:04:55;102100.31;;;10.18;68.22
62725;BME280;49026;52.600;4.694;2022-10-04T03:07:22;102096.91;;;10.13;70.97
62725;BME280;49026;52.600;4.694;2022-10-04T03:09:48;102084.72;;;10.09;69.64
62725;BME280;49026;52.600;4.694;2022-10-04T03:12:14;102075.19;;;10.05;68.94
62725;BME280;49026;52.600;4.694;2022-10-04T03:14:41;102070.84;;;10.02;68.47
62725;BME280;49026;52.600;4.694;2022-10-04T03:17:07;102062.16;;;9.98;68.10
62725;BME280;49026;52.600;4.694;2022-10-04T03:19:33;102060.50;;;9.94;67.97
62725;BME280;49026;52.600;4.694;2022-10-04T03:22:07;102062.34;;;9.89;68.11
62725;BME280;49026;52.600;4.694;2022-10-04T03:24:42;102058.00;;;9.85;68.16
62725;BME280;49026;52.600;4.694;2022-10-04T03:27:14;102070.31;;;9.83;68.21
62725;BME280;49026;52.600;4.694;2022-10-04T03:29:40;102064.28;;;9.78;68.26
62725;BME280;49026;52.600;4.694;2022-10-04T03:32:12;102067.78;;;9.75;68.10
62725;BME280;49026;52.600;4.694;2022-10-04T03:34:40;102066.09;;;9.73;68.53
62725;BME280;49026;52.600;4.694;2022-10-04T03:37:12;102057.41;;;9.71;68.10
62725;BME280;49026;52.600;4.694;2022-10-04T03:39:41;102061.81;;;9.67;68.84
62725;BME280;49026;52.600;4.694;2022-10-04T03:42:12;102046.97;;;9.66;68.45
62725;BME280;49026;52.600;4.694;2022-10-04T03:44:39;102048.75;;;9.66;68.27
62725;BME280;49026;52.600;4.694;2022-10-04T03:47:08;102044.38;;;9.64;68.13
62725;BME280;49026;52.600;4.694;2022-10-04T03:49:36;102042.59;;;9.65;68.57
62725;BME280;49026;52.600;4.694;2022-10-04T03:52:03;102046.13;;;9.66;68.59
62725;BME280;49026;52.600;4.694;2022-10-04T03:54:30;102047.00;;;9.64;68.49
62725;BME280;49026;52.600;4.694;2022-10-04T03:56:58;102027.75;;;9.66;69.01
62725;BME280;49026;52.600;4.694;2022-10-04T03:59:25;102037.34;;;9.65;70.00
62725;BME280;49026;52.600;4.694;2022-10-04T04:02:25;102041.75;;;9.64;69.48
62725;BME280;49026;52.600;4.694;2022-10-04T04:05:23;102055.75;;;9.63;69.35
62725;BME280;49026;52.600;4.694;2022-10-04T04:08:02;102049.66;;;9.61;69.27
62725;BME280;49026;52.600;4.694;2022-10-04T04:10:34;102049.66;;;9.61;68.82
62725;BME280;49026;52.600;4.694;2022-10-04T04:15:36;102051.53;;;9.55;69.73
62725;BME280;49026;52.600;4.694;2022-10-04T04:18:15;102047.22;;;9.52;68.76
62725;BME280;49026;52.600;4.694;2022-10-04T04:20:43;102047.25;;;9.49;68.45
62725;BME280;49026;52.600;4.694;2022-10-04T04:25:37;102041.19;;;9.45;68.59
62725;BME280;49026;52.600;4.694;2022-10-04T04:28:24;102034.16;;;9.48;68.90
62725;BME280;49026;52.600;4.694;2022-10-04T04:30:53;102040.28;;;9.48;69.16
62725;BME280;49026;52.600;4.694;2022-10-04T04:33:28;102043.75;;;9.49;68.65
62725;BME280;49026;52.600;4.694;2022-10-04T04:36:02;102046.38;;;9.49;68.87
62725;BME280;49026;52.600;4.694;2022-10-04T04:38:28;102039.41;;;9.48;68.42
62725;BME280;49026;52.600;4.694;2022-10-04T04:40:53;102037.66;;;9.48;68.56
62725;BME280;49026;52.600;4.694;2022-10-04T04:43:20;102029.78;;;9.46;68.78
62725;BME280;49026;52.600;4.694;2022-10-04T04:45:49;102035.06;;;9.45;68.78
62725;BME280;49026;52.600;4.694;2022-10-04T04:48:16;102029.78;;;9.46;68.96
62725;BME280;49026;52.600;4.694;2022-10-04T04:50:48;102031.53;;;9.49;68.76
62725;BME280;49026;52.600;4.694;2022-10-04T04:53:20;102016.63;;;9.50;68.90
62725;BME280;49026;52.600;4.694;2022-10-04T04:55:59;102021.84;;;9.53;69.13
62725;BME280;49026;52.600;4.694;2022-10-04T04:58:35;102019.19;;;9.54;68.38
62725;BME280;49026;52.600;4.694;2022-10-04T05:03:26;102024.47;;;9.53;68.71
62725;BME280;49026;52.600;4.694;2022-10-04T05:05:54;102030.59;;;9.52;68.69
62725;BME280;49026;52.600;4.694;2022-10-04T05:08:26;102028.03;;;9.47;68.59
62725;BME280;49026;52.600;4.694;2022-10-04T05:13:38;102025.47;;;9.44;68.63
62725;BME280;49026;52.600;4.694;2022-10-04T05:16:20;102016.75;;;9.42;68.70
62725;BME280;49026;52.600;4.694;2022-10-04T05:18:54;102018.53;;;9.40;68.59
62725;BME280;49026;52.600;4.694;2022-10-04T05:21:31;102011.63;;;9.36;68.89
62725;BME280;49026;52.600;4.694;2022-10-04T05:24:08;102010.75;;;9.34;69.06
62725;BME280;49026;52.600;4.694;2022-10-04T05:26:34;102008.19;;;9.32;69.10
62725;BME280;49026;52.600;4.694;2022-10-04T05:29:09;102006.44;;;9.31;68.76
62725;BME280;49026;52.600;4.694;2022-10-04T05:34:30;102002.06;;;9.32;69.24
62725;BME280;49026;52.600;4.694;2022-10-04T05:37:04;102002.09;;;9.28;68.98
62725;BME280;49026;52.600;4.694;2022-10-04T05:39:44;102004.78;;;9.25;69.23
62725;BME280;49026;52.600;4.694;2022-10-04T05:42:21;102000.50;;;9.20;69.62
62725;BME280;49026;52.600;4.694;2022-10-04T05:44:50;102005.78;;;9.17;69.34
62725;BME280;49026;52.600;4.694;2022-10-04T05:47:17;101997.09;;;9.13;68.94
62725;BME280;49026;52.600;4.694;2022-10-04T05:49:47;101990.19;;;9.09;69.18
62725;BME280;49026;52.600;4.694;2022-10-04T05:52:25;101990.19;;;9.09;70.37
62725;BME280;49026;52.600;4.694;2022-10-04T06:00:20;101985.00;;;9.06;70.05
62725;BME280;49026;52.600;4.694;2022-10-04T06:05:52;101985.81;;;9.08;70.73
62725;BME280;49026;52.600;4.694;2022-10-04T06:08:35;101977.97;;;9.08;69.94
62725;BME280;49026;52.600;4.694;2022-10-04T06:17:17;101987.53;;;9.11;70.62
62725;BME280;49026;52.600;4.694;2022-10-04T06:22:42;101980.50;;;9.14;70.38
62725;BME280;49026;52.600;4.694;2022-10-04T06:25:12;101976.97;;;9.14;69.99
62725;BME280;49026;52.600;4.694;2022-10-04T06:27:53;101983.09;;;9.16;70.10
62725;BME280;49026;52.600;4.694;2022-10-04T06:30:22;101983.06;;;9.17;70.05
62725;BME280;49026;52.600;4.694;2022-10-04T06:33:02;101982.09;;;9.23;70.39
62725;BME280;49026;52.600;4.694;2022-10-04T06:35:41;101985.47;;;9.30;70.06
62725;BME280;49026;52.600;4.694;2022-10-04T06:38:50;101987.03;;;9.41;70.11
62725;BME280;49026;52.600;4.694;2022-10-04T06:41:28;101988.50;;;9.58;69.62
62725;BME280;49026;52.600;4.694;2022-10-04T06:44:03;101986.34;;;9.80;70.96
62725;BME280;49026;52.600;4.694;2022-10-04T06:46:42;101988.56;;;10.01;71.08
62725;BME280;49026;52.600;4.694;2022-10-04T07:00:40;101980.81;;;10.81;72.77
62725;BME280;49026;52.600;4.694;2022-10-04T07:03:23;101986.47;;;11.02;71.31
62725;BME280;49026;52.600;4.694;2022-10-04T07:06:02;101988.47;;;11.28;72.46
62725;BME280;49026;52.600;4.694;2022-10-04T07:11:31;101991.28;;;11.56;71.33
62725;BME280;49026;52.600;4.694;2022-10-04T07:16:37;101986.13;;;11.52;71.04
62725;BME280;49026;52.600;4.694;2022-10-04T07:21:37;101980.97;;;11.47;71.53
62725;BME280;49026;52.600;4.694;2022-10-04T07:24:08;101982.81;;;11.43;71.79
62725;BME280;49026;52.600;4.694;2022-10-04T07:26:42;101989.84;;;11.43;71.98
62725;BME280;49026;52.600;4.694;2022-10-04T07:29:26;101988.13;;;11.42;71.42
62725;BME280;49026;52.600;4.694;2022-10-04T07:32:02;101995.97;;;11.43;71.26
62725;BME280;49026;52.600;4.694;2022-10-04T07:34:32;101991.53;;;11.45;71.14
62725;BME280;49026;52.600;4.694;2022-10-04T07:37:06;101986.16;;;11.50;72.14
62725;BME280;49026;52.600;4.694;2022-10-04T07:45:18;101991.25;;;11.89;71.18
62725;BME280;49026;52.600;4.694;2022-10-04T07:47:45;101990.53;;;12.17;71.25
62725;BME280;49026;52.600;4.694;2022-10-04T07:50:33;101990.84;;;12.36;70.83
62725;BME280;49026;52.600;4.694;2022-10-04T07:53:09;101989.66;;;12.46;71.44
62725;BME280;49026;52.600;4.694;2022-10-04T07:55:51;101988.84;;;12.44;73.02
62725;BME280;49026;52.600;4.694;2022-10-04T08:01:37;101992.19;;;12.51;72.09
62725;BME280;49026;52.600;4.694;2022-10-04T08:07:00;101982.22;;;12.60;71.44
62725;BME280;49026;52.600;4.694;2022-10-04T08:09:40;101986.34;;;12.69;71.31
62725;BME280;49026;52.600;4.694;2022-10-04T08:12:17;101982.50;;;12.79;71.59
62725;BME280;49026;52.600;4.694;2022-10-04T08:20:33;101981.53;;;13.10;71.59
62725;BME280;49026;52.600;4.694;2022-10-04T08:32:10;101970.53;;;13.51;71.66
62725;BME280;49026;52.600;4.694;2022-10-04T08:35:07;101976.38;;;13.61;71.93
62725;BME280;49026;52.600;4.694;2022-10-04T08:37:59;101970.72;;;13.71;71.60
62725;BME280;49026;52.600;4.694;2022-10-04T08:40:39;101974.88;;;13.79;71.89
62725;BME280;49026;52.600;4.694;2022-10-04T09:06:53;101968.81;;;14.24;71.95
62725;BME280;49026;52.600;4.694;2022-10-04T09:14:48;101954.03;;;14.42;71.53
62725;BME280;49026;52.600;4.694;2022-10-04T09:28:17;101955.94;;;14.84;71.59
62725;BME280;49026;52.600;4.694;2022-10-04T09:31:03;101950.44;;;15.11;71.15
62725;BME280;49026;52.600;4.694;2022-10-04T09:36:23;101956.88;;;15.67;70.67
62725;BME280;49026;52.600;4.694;2022-10-04T09:41:59;101958.75;;;16.44;69.50
62725;BME280;49026;52.600;4.694;2022-10-04T09:50:32;101955.38;;;16.21;69.20
62725;BME280;49026;52.600;4.694;2022-10-04T10:04:59;101946.91;;;16.89;70.07
62725;BME280;49026;52.600;4.694;2022-10-04T10:25:20;101929.09;;;19.51;66.10
62725;BME280;49026;52.600;4.694;2022-10-04T10:30:24;101918.19;;;20.13;64.33
62725;BME280;49026;52.600;4.694;2022-10-04T10:33:21;101918.50;;;20.50;63.10
62725;BME280;49026;52.600;4.694;2022-10-04T10:35:57;101919.53;;;20.89;62.94
62725;BME280;49026;52.600;4.694;2022-10-04T10:38:49;101915.34;;;21.38;62.87
62725;BME280;49026;52.600;4.694;2022-10-04T10:41:34;101913.03;;;21.59;62.53
62725;BME280;49026;52.600;4.694;2022-10-04T10:46:41;101901.88;;;21.39;61.47
62725;BME280;49026;52.600;4.694;2022-10-04T10:52:56;101888.84;;;21.60;56.05
62725;BME280;49026;52.600;4.694;2022-10-04T10:55:57;101882.59;;;21.08;61.30
62725;BME280;49026;52.600;4.694;2022-10-04T11:04:35;101901.00;;;19.31;62.92
62725;BME280;49026;52.600;4.694;2022-10-04T11:10:00;101890.91;;;19.21;62.20
62725;BME280;49026;52.600;4.694;2022-10-04T11:18:26;101904.94;;;19.09;64.62
62725;BME280;49026;52.600;4.694;2022-10-04T11:22:07;101892.88;;;19.77;63.62
62725;BME280;49026;52.600;4.694;2022-10-04T11:24:29;101902.69;;;20.47;63.32
62725;BME280;49026;52.600;4.694;2022-10-04T11:27:13;101903.75;;;21.12;62.91
62725;BME280;49026;52.600;4.694;2022-10-04T11:29:55;101893.34;;;21.73;61.38
62725;BME280;49026;52.600;4.694;2022-10-04T11:32:46;101894.75;;;22.15;61.51
62725;BME280;49026;52.600;4.694;2022-10-04T11:35:35;101897.16;;;22.44;60.88
62725;BME280;49026;52.600;4.694;2022-10-04T11:38:09;101892.19;;;22.14;60.81
62725;BME280;49026;52.600;4.694;2022-10-04T11:46:10;101888.84;;;21.60;60.85
62725;BME280;49026;52.600;4.694;2022-10-04T11:57:46;101855.16;;;22.08;60.16
62725;BME280;49026;52.600;4.694;2022-10-04T12:00:16;101863.06;;;22.46;60.55
62725;BME280;49026;52.600;4.694;2022-10-04T12:23:20;101839.53;;;22.63;57.28
62725;BME280;49026;52.600;4.694;2022-10-04T12:26:18;101821.28;;;22.19;57.15
62725;BME280;49026;52.600;4.694;2022-10-04T12:32:05;101818.00;;;22.40;56.55
62725;BME280;49026;52.600;4.694;2022-10-04T12:35:40;101806.44;;;22.75;56.13
62725;BME280;49026;52.600;4.694;2022-10-04T12:37:45;101811.03;;;22.97;56.35
62725;BME280;49026;52.600;4.694;2022-10-04T12:40:28;101811.81;;;23.10;55.67
62725;BME280;49026;52.600;4.694;2022-10-04T12:43:08;101804.84;;;23.08;56.34
62725;BME280;49026;52.600;4.694;2022-10-04T12:51:41;101807.84;;;23.03;55.35
62725;BME280;49026;52.600;4.694;2022-10-04T12:56:55;101809.22;;;23.20;57.18
62725;BME280;49026;52.600;4.694;2022-10-04T13:02:08;101787.31;;;23.26;56.94
62725;BME280;49026;52.600;4.694;2022-10-04T13:04:46;101770.97;;;23.29;56.24
62725;BME280;49026;52.600;4.694;2022-10-04T13:07:23;101769.03;;;23.54;56.31
62725;BME280;49026;52.600;4.694;2022-10-04T13:12:33;101752.84;;;23.99;56.14
62725;BME280;49026;52.600;4.694;2022-10-04T13:23:05;101745.34;;;23.71;57.01
62725;BME280;49026;52.600;4.694;2022-10-04T13:25:55;101740.72;;;23.39;53.51
62725;BME280;49026;52.600;4.694;2022-10-04T13:28:45;101741.00;;;23.13;56.37
62725;BME280;49026;52.600;4.694;2022-10-04T13:34:09;101741.16;;;22.65;55.98
62725;BME280;49026;52.600;4.694;2022-10-04T13:56:55;101745.97;;;21.39;57.61
62725;BME280;49026;52.600;4.694;2022-10-04T14:17:03;101748.31;;;22.53;54.56
62725;BME280;49026;52.600;4.694;2022-10-04T14:19:53;101744.06;;;22.02;56.10
62725;BME280;49026;52.600;4.694;2022-10-04T14:25:48;101732.31;;;20.92;57.14
62725;BME280;49026;52.600;4.694;2022-10-04T14:28:44;101739.34;;;20.27;58.14
62725;BME280;49026;52.600;4.694;2022-10-04T14:31:34;101751.66;;;19.75;58.95
62725;BME280;49026;52.600;4.694;2022-10-04T14:45:48;101747.19;;;18.45;61.17
62725;BME280;49026;52.600;4.694;2022-10-04T14:51:09;101756.00;;;18.15;61.41
62725;BME280;49026;52.600;4.694;2022-10-04T14:53:59;101745.38;;;17.99;62.02
62725;BME280;49026;52.600;4.694;2022-10-04T14:56:40;101746.97;;;17.86;62.44
62725;BME280;49026;52.600;4.694;2022-10-04T15:02:21;101748.22;;;17.64;62.27
62725;BME280;49026;52.600;4.694;2022-10-04T15:05:01;101749.47;;;17.57;63.48
62725;BME280;49026;52.600;4.694;2022-10-04T15:07:36;101745.19;;;17.54;62.52
62725;BME280;49026;52.600;4.694;2022-10-04T15:10:18;101734.91;;;17.48;62.88
62725;BME280;49026;52.600;4.694;2022-10-04T15:18:29;101750.50;;;17.54;62.96
62725;BME280;49026;52.600;4.694;2022-10-04T15:21:29;101756.66;;;17.55;62.63
62725;BME280;49026;52.600;4.694;2022-10-04T15:24:12;101748.94;;;17.50;63.08
62725;BME280;49026;52.600;4.694;2022-10-04T15:27:35;101742.25;;;17.43;63.16
62725;BME280;49026;52.600;4.694;2022-10-04T15:30:33;101732.66;;;17.40;63.39
62725;BME280;49026;52.600;4.694;2022-10-04T15:38:34;101739.78;;;17.56;63.04
62725;BME280;49026;52.600;4.694;2022-10-04T15:41:28;101731.03;;;17.54;63.09
62725;BME280;49026;52.600;4.694;2022-10-04T15:50:02;101739.69;;;17.41;63.94
62725;BME280;49026;52.600;4.694;2022-10-04T15:53:09;101731.03;;;17.38;63.96
62725;BME280;49026;52.600;4.694;2022-10-04T16:04:39;101728.41;;;17.20;63.71
62725;BME280;49026;52.600;4.694;2022-10-04T16:09:45;101732.44;;;17.12;63.76
62725;BME280;49026;52.600;4.694;2022-10-04T16:15:38;101733.94;;;17.00;64.93
62725;BME280;49026;52.600;4.694;2022-10-04T16:18:41;101723.41;;;16.98;64.10
62725;BME280;49026;52.600;4.694;2022-10-04T16:29:56;101722.25;;;16.87;63.97
62725;BME280;49026;52.600;4.694;2022-10-04T16:32:38;101735.72;;;16.82;64.24
62725;BME280;49026;52.600;4.694;2022-10-04T16:35:28;101742.00;;;16.81;64.39
62725;BME280;49026;52.600;4.694;2022-10-04T16:38:19;101734.19;;;16.78;63.98
62725;BME280;49026;52.600;4.694;2022-10-04T16:48:31;101723.25;;;16.66;65.13
62725;BME280;49026;52.600;4.694;2022-10-04T16:56:32;101706.88;;;16.58;66.12
62725;BME280;49026;52.600;4.694;2022-10-04T17:04:53;101711.72;;;16.50;66.26
62725;BME280;49026;52.600;4.694;2022-10-04T17:07:40;101717.97;;;16.49;65.72
62725;BME280;49026;52.600;4.694;2022-10-04T17:12:55;101731.31;;;16.47;66.25
62725;BME280;49026;52.600;4.694;2022-10-04T17:15:45;101762.28;;;16.47;65.25
62725;BME280;49026;52.600;4.694;2022-10-04T17:18:17;101756.03;;;16.48;65.66
62725;BME280;49026;52.600;4.694;2022-10-04T17:20:50;101756.28;;;16.43;65.63
62725;BME280;49026;52.600;4.694;2022-10-04T17:26:34;101751.81;;;16.26;65.92
62725;BME280;49026;52.600;4.694;2022-10-04T17:32:02;101755.00;;;16.16;65.72
62725;BME280;49026;52.600;4.694;2022-10-04T17:43:02;101755.94;;;16.15;66.06
62725;BME280;49026;52.600;4.694;2022-10-04T17:46:05;101760.47;;;16.13;66.40
62725;BME280;49026;52.600;4.694;2022-10-04T17:48:51;101763.25;;;16.09;66.98
62725;BME280;49026;52.600;4.694;2022-10-04T17:51:40;101763.31;;;16.08;66.32
62725;BME280;49026;52.600;4.694;2022-10-04T17:57:26;101751.47;;;15.98;67.04
62725;BME280;49026;52.600;4.694;2022-10-04T18:00:05;101755.97;;;15.96;67.03
62725;BME280;49026;52.600;4.694;2022-10-04T18:05:11;101747.28;;;15.92;66.82
62725;BME280;49026;52.600;4.694;2022-10-04T18:07:55;101752.69;;;15.90;67.12
62725;BME280;49026;52.600;4.694;2022-10-04T18:10:32;101750.03;;;15.90;67.08
62725;BME280;49026;52.600;4.694;2022-10-04T18:13:26;101756.13;;;15.92;67.37
62725;BME280;49026;52.600;4.694;2022-10-04T18:18:44;101744.09;;;15.47;68.04
62725;BME280;49026;52.600;4.694;2022-10-04T18:24:34;101734.13;;;14.94;70.05
62725;BME280;49026;52.600;4.694;2022-10-04T18:26:37;101731.22;;;14.79;69.59
62725;BME280;49026;52.600;4.694;2022-10-04T18:29:37;101727.19;;;14.71;69.70
62725;BME280;49026;52.600;4.694;2022-10-04T18:32:35;101707.19;;;14.65;70.12
62725;BME280;49026;52.600;4.694;2022-10-04T18:37:53;101706.34;;;14.63;69.68
62725;BME280;49026;52.600;4.694;2022-10-04T18:40:25;101681.69;;;14.62;69.85
62725;BME280;49026;52.600;4.694;2022-10-04T18:42:56;101671.97;;;14.63;69.99
62725;BME280;49026;52.600;4.694;2022-10-04T18:47:51;101671.72;;;14.69;69.62
62725;BME280;49026;52.600;4.694;2022-10-04T18:50:25;101666.28;;;14.72;69.99
62725;BME280;49026;52.600;4.694;2022-10-04T18:56:00;101653.38;;;14.85;69.97
62725;BME280;49026;52.600;4.694;2022-10-04T19:01:58;101658.81;;;15.01;69.20
62725;BME280;49026;52.600;4.694;2022-10-04T19:04:41;101664.63;;;15.09;68.92
62725;BME280;49026;52.600;4.694;2022-10-04T19:07:13;101655.47;;;15.16;69.60
62725;BME280;49026;52.600;4.694;2022-10-04T19:15:30;101667.69;;;15.38;69.00
62725;BME280;49026;52.600;4.694;2022-10-04T19:18:22;101675.44;;;15.43;68.69
62725;BME280;49026;52.600;4.694;2022-10-04T19:26:31;101665.97;;;15.56;68.87
62725;BME280;49026;52.600;4.694;2022-10-04T19:29:14;101669.47;;;15.56;69.38
62725;BME280;49026;52.600;4.694;2022-10-04T19:34:20;101653.56;;;15.56;69.40
62725;BME280;49026;52.600;4.694;2022-10-04T19:37:01;101650.84;;;15.58;69.55
62725;BME280;49026;52.600;4.694;2022-10-04T19:39:56;101653.44;;;15.60;70.24
62725;BME280;49026;52.600;4.694;2022-10-04T19:45:36;101664.81;;;15.62;69.81
62725;BME280;49026;52.600;4.694;2022-10-04T19:48:17;101653.22;;;15.64;69.61
62725;BME280;49026;52.600;4.694;2022-10-04T19:51:09;101656.56;;;15.68;69.78
62725;BME280;49026;52.600;4.694;2022-10-04T19:53:43;101663.53;;;15.70;69.95
62725;BME280;49026;52.600;4.694;2022-10-04T19:56:21;101661.72;;;15.71;69.41
62725;BME280;49026;52.600;4.694;2022-10-04T19:59:24;101672.31;;;15.71;69.56
62725;BME280;49026;52.600;4.694;2022-10-04T20:01:54;101677.56;;;15.72;69.26
62725;BME280;49026;52.600;4.694;2022-10-04T20:04:19;101667.88;;;15.71;69.35
62725;BME280;49026;52.600;4.694;2022-10-04T20:07:16;101681.91;;;15.73;69.60
62725;BME280;49026;52.600;4.694;2022-10-04T20:17:42;101678.41;;;15.73;69.56
62725;BME280;49026;52.600;4.694;2022-10-04T20:20:13;101679.25;;;15.73;69.76
62725;BME280;49026;52.600;4.694;2022-10-04T20:30:56;101687.13;;;15.75;70.06
62725;BME280;49026;52.600;4.694;2022-10-04T20:42:01;101674.97;;;15.71;72.51
62725;BME280;49026;52.600;4.694;2022-10-04T20:44:41;101672.31;;;15.71;70.09
62725;BME280;49026;52.600;4.694;2022-10-04T20:47:33;101674.19;;;15.69;69.78
62725;BME280;49026;52.600;4.694;2022-10-04T20:50:00;101668.00;;;15.68;69.90
62725;BME280;49026;52.600;4.694;2022-10-04T20:52:31;101674.19;;;15.69;69.80
62725;BME280;49026;52.600;4.694;2022-10-04T20:55:06;101672.47;;;15.68;71.29
62725;BME280;49026;52.600;4.694;2022-10-04T20:57:42;101665.28;;;15.70;70.01
62725;BME280;49026;52.600;4.694;2022-10-04T21:00:19;101662.66;;;15.70;70.92
62725;BME280;49026;52.600;4.694;2022-10-04T21:02:45;101664.50;;;15.68;71.54
62725;BME280;49026;52.600;4.694;2022-10-04T21:05:16;101660.06;;;15.68;71.17
62725;BME280;49026;52.600;4.694;2022-10-04T21:07:47;101646.88;;;15.67;70.58
62725;BME280;49026;52.600;4.694;2022-10-04T21:10:18;101658.38;;;15.67;70.65
62725;BME280;49026;52.600;4.694;2022-10-04T21:12:47;101661.03;;;15.67;70.52
62725;BME280;49026;52.600;4.694;2022-10-04T21:15:18;101668.00;;;15.68;70.53
62725;BME280;49026;52.600;4.694;2022-10-04T21:18:04;101664.50;;;15.68;70.92
62725;BME280;49026;52.600;4.694;2022-10-04T21:20:50;101675.75;;;15.73;70.71
62725;BME280;49026;52.600;4.694;2022-10-04T21:23:32;101645.81;;;15.71;70.91
62725;BME280;49026;52.600;4.694;2022-10-04T21:26:24;101665.22;;;15.71;71.04
62725;BME280;49026;52.600;4.694;2022-10-04T21:29:06;101657.19;;;15.73;70.52
62725;BME280;49026;52.600;4.694;2022-10-04T21:31:38;101651.91;;;15.73;70.31
62725;BME280;49026;52.600;4.694;2022-10-04T21:34:24;101656.44;;;15.71;70.46
62725;BME280;49026;52.600;4.694;2022-10-04T21:37:09;101655.50;;;15.72;70.43
62725;BME280;49026;52.600;4.694;2022-10-04T21:39:35;101658.16;;;15.72;70.61